logo meteoemiliaromagna

Diretta Meteo Caslav, Repubblica Cecalunedì 22 luglio ore 10:00

Mappa
Sereno 23 °C Molto Nuvoloso 24 Ore: T.min 16 T.max 30
Ponente Nord Km/h 5.5 Punto di rugiada: 15 °C Umidità: 60% Visibilità: 10 Km
Il sole sorge alle: 05:13 Il sole tramonta alle: 20:56
22 Luglio 2024 10:00 tempo osservato: Molto Nuvoloso Molto Nuvoloso 23 60 1013 vento: Nord N 5.5
22 Luglio 2024 09:30 tempo osservato: Molto Nuvoloso Molto Nuvoloso 21 68 1013 vento: Nord NO 13
22 Luglio 2024 09:00 tempo osservato: Molto Nuvoloso Molto Nuvoloso 21 68 1013 vento: Nord O/NO 11.1
22 Luglio 2024 08:30 tempo osservato: Pioggia nelle vicinanze Pioggia nelle vicinanze 21 73 1012 vento: Nord NO 13
22 Luglio 2024 08:00 tempo osservato: Pioggia nelle vicinanze Pioggia nelle vicinanze 22 68 1012 vento: Nord O 11.1
22 Luglio 2024 07:30 tempo osservato: Molto Nuvoloso Molto Nuvoloso 22 64 1011 vento: Nord N 5.5
22 Luglio 2024 07:00 tempo osservato: Molto Nuvoloso Molto Nuvoloso 21 68 1011 vento: Nord N 3.7
22 Luglio 2024 06:30 tempo osservato: Nuvoloso Nuvoloso 18 77 1011 vento: Nord S 7.4
22 Luglio 2024 06:00 tempo osservato: Sereno Sereno 18 72 1011 vento: Nord N 5.5
22 Luglio 2024 05:30 tempo osservato: Sereno Sereno 18 72 1010 vento: Nord N 1.8
22 Luglio 2024 05:00 tempo osservato: Sereno Sereno 18 72 1010 vento: Nord S/SE 11.1
22 Luglio 2024 04:30 tempo osservato: Sereno Sereno 19 68 1010 vento: Nord S/SE 11.1
22 Luglio 2024 04:00 tempo osservato: Sereno Sereno 18 72 1010 vento: Nord S/SE 9.3
22 Luglio 2024 03:30 tempo osservato: Sereno Sereno 17 77 1010 vento: Nord N 5.5
22 Luglio 2024 03:00 tempo osservato: Sereno Sereno 17 77 1010 vento: Nord SE 7.4
22 Luglio 2024 02:30 tempo osservato: Sereno Sereno 17 77 1010 vento: Nord SE 9.3
22 Luglio 2024 02:00 tempo osservato: Sereno Sereno 16 82 1010 vento: Nord N 5.5
22 Luglio 2024 01:30 tempo osservato: Sereno Sereno 17 77 1010 vento: Nord N 3.7
22 Luglio 2024 01:00 tempo osservato: Sereno Sereno 17 77 1010 vento: Nord N 5.5
22 Luglio 2024 00:30 tempo osservato: Sereno Sereno 18 77 1010 vento: Nord N 3.7
22 Luglio 2024 00:00 tempo osservato: Sereno Sereno 18 77 1010 vento: Nord N 3.7
21 Luglio 2024 23:30 tempo osservato: Sereno Sereno 19 72 1010 vento: Nord N 3.7
21 Luglio 2024 23:00 tempo osservato: Sereno Sereno 19 72 1010 vento: Nord N 5.5
21 Luglio 2024 22:30 tempo osservato: Sereno Sereno 21 64 1010 vento: Nord N 5.5
21 Luglio 2024 22:00 tempo osservato: Sereno Sereno 21 64 1009 vento: Nord N 5.5
21 Luglio 2024 21:30 tempo osservato: Sereno Sereno 26 39 1009 vento: Nord N 1.8
21 Luglio 2024 21:00 tempo osservato: Sereno Sereno 27 36 1009 vento: Nord N 3.7
21 Luglio 2024 20:30 tempo osservato: Sereno Sereno 28 34 1008 vento: Nord N 5.5
21 Luglio 2024 20:00 tempo osservato: Sereno Sereno 28 34 1008 vento: Nord N/NE 7.4
21 Luglio 2024 19:30 tempo osservato: Sereno Sereno 29 35 1009 vento: Nord N/NE 9.3
21 Luglio 2024 19:00 tempo osservato: Sereno Sereno 29 32 1009 vento: Nord NE 11.1
21 Luglio 2024 18:30 tempo osservato: Sereno Sereno 30 30 1009 vento: Nord NE 11.1
21 Luglio 2024 18:00 tempo osservato: Sereno Sereno 30 28 1009 vento: Nord NE 11.1
21 Luglio 2024 17:30 tempo osservato: Sereno Sereno 30 30 1009 vento: Nord N/NE 11.1
21 Luglio 2024 17:00 tempo osservato: Sereno Sereno 30 30 1009 vento: Nord N/NE 11.1
21 Luglio 2024 16:30 tempo osservato: Sereno Sereno 29 37 1009 vento: Nord N 7.4
21 Luglio 2024 16:00 tempo osservato: Sereno Sereno 30 33 1009 vento: Nord N 5.5
21 Luglio 2024 15:30 tempo osservato: Sereno Sereno 29 35 1009 vento: Nord N 5.5
21 Luglio 2024 15:00 tempo osservato: Sereno Sereno 29 32 1009 vento: Nord N/NE 7.4
21 Luglio 2024 14:30 tempo osservato: Sereno Sereno 29 37 1009 vento: Nord N 11.1
21 Luglio 2024 14:00 tempo osservato: Sereno Sereno 29 37 1009 vento: Nord N 5.5
21 Luglio 2024 13:30 tempo osservato: Sereno Sereno 28 39 1010 vento: Nord O/SO 9.3
21 Luglio 2024 13:00 tempo osservato: Sereno Sereno 28 39 1010 vento: Nord N 9.3
21 Luglio 2024 12:30 tempo osservato: Sereno Sereno 28 39 1010 vento: Nord N/NE 7.4
21 Luglio 2024 12:00 tempo osservato: Sereno Sereno 28 42 1010 vento: Nord E 7.4
21 Luglio 2024 11:30 tempo osservato: Sereno Sereno 28 39 1010 vento: Nord E/SE 7.4
21 Luglio 2024 11:00 tempo osservato: Sereno Sereno 27 42 1010 vento: Nord N 5.5